Time;durP1;ratioP1;P1;durP2;ratioP2;P2;SDS_P1;SDS_P2;PMS_P1;PMS_P2;Temp;Humidity;BMP_temperature;BMP_pressure;BME280_temperature;BME280_humidity;BME280_pressure;Samples;Min_cycle;Max_cycle;Signal;HPM_P1;HPM_P2
2022/07/04 00:00:10;;;;;;;4.45;1.48;;;14.30;99.90;;;;;;5034995;28;20030;-72
2022/07/04 00:02:38;;;;;;;3.72;1.40;;;14.30;99.90;;;;;;5031319;28;20033;-72
2022/07/04 00:05:09;;;;;;;4.75;1.30;;;14.30;99.90;;;;;;5029648;28;20120;-71
2022/07/04 00:07:34;;;;;;;2.33;1.38;;;14.30;99.90;;;;;;5027931;28;20036;-69
2022/07/04 00:10:00;;;;;;;5.63;1.33;;;14.30;99.90;;;;;;5027441;28;20029;-72
2022/07/04 00:12:25;;;;;;;4.53;1.95;;;14.30;99.90;;;;;;5026176;28;20462;-70
2022/07/04 00:14:51;;;;;;;6.80;1.45;;;14.30;99.90;;;;;;5028418;28;20041;-72
2022/07/04 00:17:16;;;;;;;4.13;1.40;;;14.30;99.90;;;;;;5027026;28;20025;-72
2022/07/04 00:19:42;;;;;;;6.13;1.60;;;14.30;99.90;;;;;;5026993;28;20036;-72
2022/07/04 00:22:07;;;;;;;7.40;1.40;;;14.30;99.90;;;;;;5036415;28;20444;-72
2022/07/04 00:24:33;;;;;;;4.78;1.88;;;14.20;99.90;;;;;;5037708;28;20112;-72
2022/07/04 00:26:59;;;;;;;3.17;1.58;;;14.20;99.90;;;;;;5040576;28;20033;-72
2022/07/04 00:29:24;;;;;;;5.78;2.40;;;14.20;99.90;;;;;;5029377;28;20393;-72
2022/07/04 00:31:50;;;;;;;5.45;1.73;;;14.20;99.90;;;;;;5032769;28;20512;-70
2022/07/04 00:34:15;;;;;;;4.20;1.70;;;14.20;99.90;;;;;;5030472;28;20033;-72
2022/07/04 00:36:41;;;;;;;6.85;1.77;;;14.20;99.90;;;;;;5031027;28;20568;-72
2022/07/04 00:39:07;;;;;;;4.90;1.40;;;14.20;99.90;;;;;;5032068;28;20092;-71
2022/07/04 00:41:32;;;;;;;5.97;1.80;;;14.10;99.90;;;;;;5030804;28;20026;-73
2022/07/04 00:44:06;;;;;;;5.07;1.58;;;14.10;99.90;;;;;;5031179;28;20112;-72
2022/07/04 00:46:32;;;;;;;4.85;1.65;;;14.10;99.90;;;;;;5029180;28;20044;-73
2022/07/04 00:48:58;;;;;;;4.43;2.22;;;14.10;99.90;;;;;;5031490;28;20030;-73
2022/07/04 00:51:25;;;;;;;2.58;1.40;;;14.10;99.90;;;;;;5029995;28;20064;-72
2022/07/04 00:53:53;;;;;;;2.70;1.73;;;14.10;99.90;;;;;;5031337;28;20029;-71
2022/07/04 00:56:20;;;;;;;6.22;2.33;;;14.10;99.90;;;;;;5031414;28;20034;-73
2022/07/04 00:58:46;;;;;;;4.97;1.55;;;14.10;99.90;;;;;;5029187;28;20030;-72
2022/07/04 01:01:11;;;;;;;3.92;1.80;;;14.10;99.90;;;;;;5030896;28;20034;-72
2022/07/04 01:03:37;;;;;;;6.90;2.13;;;14.10;99.90;;;;;;5029876;28;20540;-71
2022/07/04 01:06:03;;;;;;;5.30;2.30;;;14.10;99.90;;;;;;5031539;28;20038;-72
2022/07/04 01:08:28;;;;;;;6.07;2.00;;;14.10;99.90;;;;;;5029355;28;20109;-72
2022/07/04 01:10:54;;;;;;;5.28;2.35;;;14.10;99.90;;;;;;5031707;28;20049;-71
2022/07/04 01:13:23;;;;;;;4.35;1.70;;;14.10;99.90;;;;;;5031479;28;20043;-70
2022/07/04 01:15:50;;;;;;;4.65;1.80;;;14.10;99.90;;;;;;5031377;28;20035;-72
2022/07/04 01:18:16;;;;;;;4.60;1.95;;;14.10;99.90;;;;;;5031130;28;20581;-72
2022/07/04 01:20:42;;;;;;;4.50;2.17;;;14.10;99.90;;;;;;5030488;28;20037;-71
2022/07/04 01:23:08;;;;;;;3.35;1.65;;;14.00;99.90;;;;;;5032866;28;20026;-71
2022/07/04 01:25:33;;;;;;;9.50;2.90;;;14.00;99.90;;;;;;5033609;28;20033;-72
2022/07/04 01:28:02;;;;;;;5.20;1.75;;;14.00;99.90;;;;;;5034956;28;20544;-72
2022/07/04 01:30:29;;;;;;;5.88;2.42;;;14.00;99.90;;;;;;5029111;28;20172;-70
2022/07/04 01:32:55;;;;;;;6.32;2.40;;;14.00;99.90;;;;;;5030389;28;20037;-70
2022/07/04 01:35:21;;;;;;;8.75;1.92;;;14.00;99.90;;;;;;5026843;28;20051;-69
2022/07/04 01:37:47;;;;;;;11.52;2.60;;;14.00;99.90;;;;;;5029097;28;20038;-72
2022/07/04 01:40:13;;;;;;;7.15;3.30;;;14.00;99.90;;;;;;5030349;28;20041;-72
2022/07/04 01:42:40;;;;;;;6.68;2.70;;;14.00;99.90;;;;;;5029289;28;20037;-71
2022/07/04 01:45:07;;;;;;;6.07;2.53;;;14.00;99.90;;;;;;5030669;28;20034;-72
2022/07/04 01:47:33;;;;;;;12.75;3.15;;;14.00;99.90;;;;;;5029249;28;20067;-72
2022/07/04 01:49:59;;;;;;;8.90;2.80;;;13.90;99.90;;;;;;5029371;28;20034;-72
2022/07/04 01:52:25;;;;;;;6.55;2.38;;;13.90;99.90;;;;;;5029472;28;20041;-72
2022/07/04 01:54:51;;;;;;;8.50;1.95;;;13.90;99.90;;;;;;5031001;28;20037;-71
2022/07/04 01:57:17;;;;;;;5.70;2.38;;;13.90;99.90;;;;;;5030141;28;20037;-72
2022/07/04 02:02:27;;;;;;;8.45;2.15;;;13.90;99.90;;;;;;5036746;28;20040;-72
2022/07/04 02:04:53;;;;;;;4.65;2.20;;;13.90;99.90;;;;;;5040405;28;20489;-71
2022/07/04 02:07:18;;;;;;;6.15;2.92;;;13.90;99.90;;;;;;5030631;28;20026;-72
2022/07/04 02:09:44;;;;;;;8.75;3.00;;;13.90;99.90;;;;;;5029960;28;20040;-72
2022/07/04 02:14:54;;;;;;;5.10;2.47;;;13.80;99.90;;;;;;5026246;28;20536;-72
2022/07/04 02:17:20;;;;;;;5.38;2.30;;;13.80;99.90;;;;;;5030230;28;20061;-72
2022/07/04 02:19:45;;;;;;;4.30;2.25;;;13.80;99.90;;;;;;5027306;28;20033;-72
2022/07/04 02:22:11;;;;;;;7.07;2.47;;;13.80;99.90;;;;;;5029781;28;20115;-72
2022/07/04 02:24:37;;;;;;;7.90;2.25;;;13.80;99.90;;;;;;5028350;28;20091;-71
2022/07/04 02:27:03;;;;;;;6.22;2.60;;;13.80;99.90;;;;;;5029375;28;20041;-72
2022/07/04 02:29:28;;;;;;;8.57;2.58;;;13.70;99.90;;;;;;5027319;28;20029;-70
2022/07/04 02:31:54;;;;;;;6.25;2.35;;;13.70;99.90;;;;;;5027862;28;20046;-72
2022/07/04 02:34:20;;;;;;;5.93;2.20;;;13.70;99.90;;;;;;5029423;28;20124;-72
2022/07/04 02:36:46;;;;;;;5.47;2.67;;;13.70;99.90;;;;;;5028077;28;20548;-72
2022/07/04 02:39:12;;;;;;;4.50;2.10;;;13.70;99.90;;;;;;5029597;28;20045;-72
2022/07/04 02:41:37;;;;;;;5.97;3.15;;;13.70;99.90;;;;;;5026705;28;20057;-71
2022/07/04 02:44:03;;;;;;;7.43;2.58;;;13.70;99.90;;;;;;5028375;28;20152;-72
2022/07/04 02:46:31;;;;;;;4.60;2.50;;;13.70;99.90;;;;;;5032467;28;20490;-71
2022/07/04 02:48:57;;;;;;;4.53;1.98;;;13.70;99.90;;;;;;5034539;28;20029;-72
2022/07/04 02:51:22;;;;;;;8.85;3.00;;;13.70;99.90;;;;;;5030904;28;20397;-72
2022/07/04 02:53:48;;;;;;;7.95;3.38;;;13.70;99.90;;;;;;5027051;28;20034;-72
2022/07/04 02:56:13;;;;;;;11.25;3.08;;;13.70;99.90;;;;;;5027399;28;20029;-71
2022/07/04 02:58:39;;;;;;;5.70;2.38;;;13.70;99.90;;;;;;5028049;28;20114;-70
2022/07/04 03:01:04;;;;;;;4.47;2.58;;;13.60;99.90;;;;;;5029179;28;20048;-72
2022/07/04 03:03:30;;;;;;;8.10;2.42;;;13.60;99.90;;;;;;5027645;28;20125;-72
2022/07/04 03:05:56;;;;;;;4.18;2.35;;;13.60;99.90;;;;;;5029229;28;20107;-72
2022/07/04 03:08:21;;;;;;;7.07;2.92;;;13.60;99.90;;;;;;5029406;28;20057;-72
2022/07/04 03:10:50;;;;;;;5.18;2.72;;;13.60;99.90;;;;;;5028335;28;20048;-72
2022/07/04 03:13:16;;;;;;;5.15;2.63;;;13.50;99.90;;;;;;5026591;28;20033;-72
2022/07/04 03:15:42;;;;;;;8.75;3.10;;;13.50;99.90;;;;;;5030991;28;20397;-72
2022/07/04 03:18:08;;;;;;;14.38;2.72;;;13.50;99.90;;;;;;5030053;28;20029;-71
2022/07/04 03:20:33;;;;;;;8.63;3.03;;;13.50;99.90;;;;;;5026891;28;20099;-70
2022/07/04 03:22:59;;;;;;;4.35;2.22;;;13.50;99.90;;;;;;5029072;28;20594;-72
2022/07/04 03:25:25;;;;;;;10.52;2.85;;;13.50;99.90;;;;;;5028507;28;20033;-71
2022/07/04 03:27:50;;;;;;;5.80;2.97;;;13.60;99.90;;;;;;5028854;28;20567;-72
2022/07/04 03:30:16;;;;;;;6.00;2.50;;;13.60;99.90;;;;;;5028993;28;20041;-70
2022/07/04 03:32:41;;;;;;;3.60;2.00;;;13.50;99.90;;;;;;5030296;28;20052;-72
2022/07/04 03:35:07;;;;;;;5.50;2.92;;;13.60;99.90;;;;;;5039459;28;20030;-73
2022/07/04 03:37:33;;;;;;;6.50;2.67;;;13.60;99.90;;;;;;5036851;28;20033;-71
2022/07/04 03:39:58;;;;;;;6.80;2.53;;;13.60;99.90;;;;;;5036435;28;20386;-72
2022/07/04 03:42:24;;;;;;;8.52;2.75;;;13.60;99.90;;;;;;5027142;28;20531;-71
2022/07/04 03:44:49;;;;;;;9.93;3.05;;;13.60;99.90;;;;;;5027499;28;20034;-72
2022/07/04 03:47:15;;;;;;;6.43;2.88;;;13.60;99.90;;;;;;5028936;28;20034;-72
2022/07/04 03:49:40;;;;;;;10.05;3.30;;;13.60;99.90;;;;;;5025559;28;20494;-71
2022/07/04 03:52:06;;;;;;;6.65;2.78;;;13.60;99.90;;;;;;5027525;28;20513;-71
2022/07/04 03:54:35;;;;;;;7.57;2.97;;;13.70;99.90;;;;;;5026218;28;20402;-70
2022/07/04 03:57:00;;;;;;;6.35;2.40;;;13.70;99.90;;;;;;5028866;28;20033;-72
2022/07/04 03:59:26;;;;;;;8.35;3.20;;;13.70;99.90;;;;;;5028519;28;20141;-71
2022/07/04 04:01:51;;;;;;;4.93;2.65;;;13.80;99.90;;;;;;5027867;28;20041;-72
2022/07/04 04:07:02;;;;;;;7.40;2.80;;;13.80;99.90;;;;;;5037856;28;20092;-72
2022/07/04 04:09:28;;;;;;;8.43;2.97;;;13.90;99.90;;;;;;5036025;28;20033;-72
2022/07/04 04:11:53;;;;;;;9.30;3.53;;;13.90;99.90;;;;;;5033295;28;20048;-72
2022/07/04 04:14:20;;;;;;;10.90;3.05;;;14.00;99.90;;;;;;5030885;28;20527;-70
2022/07/04 04:16:45;;;;;;;3.92;2.28;;;14.00;99.90;;;;;;5034565;28;20037;-72
2022/07/04 04:19:11;;;;;;;6.70;2.45;;;14.00;99.90;;;;;;5029868;28;20498;-72
2022/07/04 04:21:37;;;;;;;6.78;2.33;;;14.00;99.90;;;;;;5031266;28;20037;-72
2022/07/04 04:24:03;;;;;;;7.93;2.47;;;14.00;99.90;;;;;;5030455;28;20044;-72
2022/07/04 04:26:29;;;;;;;6.45;2.22;;;14.10;99.90;;;;;;5031636;28;20029;-72
2022/07/04 04:28:55;;;;;;;8.73;2.78;;;14.10;99.90;;;;;;5032540;28;20022;-71
2022/07/04 04:31:21;;;;;;;6.22;2.90;;;14.10;99.90;;;;;;5031733;28;20099;-72
2022/07/04 04:33:46;;;;;;;7.28;2.05;;;14.20;99.90;;;;;;5031041;28;20087;-72
2022/07/04 04:36:12;;;;;;;7.90;2.20;;;14.20;99.90;;;;;;5031876;28;20037;-72
2022/07/04 04:38:38;;;;;;;13.05;2.58;;;14.20;99.90;;;;;;5031300;28;20679;-72
2022/07/04 04:41:03;;;;;;;6.55;2.67;;;14.30;99.90;;;;;;5032469;28;20029;-72
2022/07/04 04:43:29;;;;;;;8.07;3.38;;;14.20;99.90;;;;;;5030700;28;20420;-72
2022/07/04 04:45:55;;;;;;;11.90;2.50;;;14.30;99.90;;;;;;5031782;28;20037;-71
2022/07/04 04:48:20;;;;;;;12.15;2.20;;;14.30;99.90;;;;;;5030319;28;20451;-71
2022/07/04 04:50:46;;;;;;;7.80;2.38;;;14.30;99.90;;;;;;5030801;28;20059;-72
2022/07/04 04:53:12;;;;;;;7.72;1.70;;;14.30;99.90;;;;;;5031170;28;20037;-72
2022/07/04 04:55:39;;;;;;;5.38;2.28;;;14.40;99.90;;;;;;5030773;28;20049;-72
2022/07/04 04:58:04;;;;;;;6.50;2.28;;;14.40;99.90;;;;;;5030249;28;20375;-71
2022/07/04 05:00:30;;;;;;;9.38;1.52;;;14.50;99.90;;;;;;5029939;28;20033;-72
2022/07/04 05:02:56;;;;;;;10.98;2.40;;;14.60;99.90;;;;;;5029848;28;20029;-71
2022/07/04 05:05:21;;;;;;;4.60;2.28;;;14.70;99.90;;;;;;5034932;28;20033;-72
2022/07/04 05:07:47;;;;;;;4.28;1.85;;;14.70;99.90;;;;;;5031740;28;20126;-72
2022/07/04 05:10:13;;;;;;;4.78;1.70;;;14.80;99.90;;;;;;5042068;28;20044;-70
2022/07/04 05:12:38;;;;;;;7.30;1.90;;;14.80;99.90;;;;;;5036300;28;20512;-72
2022/07/04 05:15:04;;;;;;;3.42;1.58;;;14.80;99.90;;;;;;5031534;28;20037;-72
2022/07/04 05:17:30;;;;;;;9.35;1.77;;;14.80;99.90;;;;;;5030927;28;20037;-72
2022/07/04 05:19:56;;;;;;;5.35;1.63;;;14.90;99.90;;;;;;5030752;28;20025;-72
2022/07/04 05:22:21;;;;;;;3.45;1.70;;;15.00;99.90;;;;;;5036046;28;20519;-72
2022/07/04 05:24:47;;;;;;;5.32;1.83;;;15.20;99.90;;;;;;5047188;28;20116;-72
2022/07/04 05:27:13;;;;;;;9.77;1.85;;;15.40;99.90;;;;;;5045724;28;20033;-71
2022/07/04 05:29:38;;;;;;;4.65;1.77;;;15.50;99.90;;;;;;5034967;28;20045;-73
2022/07/04 05:32:05;;;;;;;9.30;1.80;;;15.70;99.90;;;;;;5032034;28;20117;-72
2022/07/04 05:34:30;;;;;;;4.32;2.05;;;15.70;99.90;;;;;;5026939;28;20037;-72
2022/07/04 05:36:56;;;;;;;5.93;1.65;;;15.80;99.90;;;;;;5042316;28;20123;-70
2022/07/04 05:39:22;;;;;;;5.43;1.60;;;15.90;99.90;;;;;;5033275;28;20052;-73
2022/07/04 05:41:47;;;;;;;6.13;1.77;;;16.10;99.90;;;;;;5030431;28;20026;-73
2022/07/04 05:44:13;;;;;;;7.93;1.50;;;16.20;99.90;;;;;;5030256;28;20033;-71
2022/07/04 05:46:38;;;;;;;5.25;1.73;;;16.30;99.90;;;;;;5031860;28;20049;-71
2022/07/04 05:49:04;;;;;;;4.10;1.75;;;16.40;99.90;;;;;;5031207;28;20047;-72
2022/07/04 05:51:30;;;;;;;5.45;1.13;;;16.50;99.90;;;;;;5029832;28;20116;-72
2022/07/04 05:53:55;;;;;;;2.97;1.25;;;16.60;99.90;;;;;;5029117;28;20029;-72
2022/07/04 05:56:21;;;;;;;5.88;1.63;;;16.60;99.90;;;;;;5030195;28;20120;-72
2022/07/04 05:58:47;;;;;;;5.38;1.60;;;16.80;99.90;;;;;;5028980;28;20033;-73
2022/07/04 06:01:13;;;;;;;5.38;1.33;;;17.20;99.90;;;;;;5029298;28;20486;-71
2022/07/04 06:03:39;;;;;;;4.25;1.00;;;17.70;99.90;;;;;;5029312;28;20109;-71
2022/07/04 06:06:05;;;;;;;7.55;1.73;;;18.00;99.90;;;;;;5030509;28;20116;-72
2022/07/04 06:08:31;;;;;;;5.22;1.30;;;18.10;99.90;;;;;;5028874;28;20099;-72
2022/07/04 06:10:57;;;;;;;10.43;1.60;;;18.10;99.90;;;;;;5029693;28;20041;-72
2022/07/04 06:13:22;;;;;;;3.40;0.93;;;18.00;99.90;;;;;;5033907;28;20048;-72
2022/07/04 06:15:48;;;;;;;4.93;1.10;;;18.00;99.90;;;;;;5030141;28;20410;-72
2022/07/04 06:18:15;;;;;;;7.10;1.50;;;17.90;99.90;;;;;;5029132;28;20495;-72
2022/07/04 06:20:40;;;;;;;3.17;1.15;;;17.80;99.90;;;;;;5029441;28;20055;-70
2022/07/04 06:23:07;;;;;;;4.50;1.35;;;17.60;99.90;;;;;;5026398;28;20494;-73
2022/07/04 06:25:33;;;;;;;4.88;1.63;;;17.60;99.90;;;;;;5030944;28;20033;-74
2022/07/04 06:27:59;;;;;;;4.68;1.38;;;17.60;99.90;;;;;;5030527;28;20046;-73
2022/07/04 06:30:25;;;;;;;6.10;1.52;;;17.80;99.90;;;;;;5030517;28;20038;-72
2022/07/04 06:32:52;;;;;;;6.80;1.42;;;18.00;99.90;;;;;;5028735;28;20048;-74
2022/07/04 06:38:08;;;;;;;11.80;1.30;;;18.40;99.90;;;;;;5025411;28;20413;-74
2022/07/04 06:40:35;;;;;;;8.32;1.20;;;18.60;99.90;;;;;;5027058;28;20033;-74
2022/07/04 06:43:01;;;;;;;4.43;1.95;;;18.90;99.90;;;;;;5035769;28;20056;-73
2022/07/04 06:45:26;;;;;;;6.90;1.35;;;19.10;99.90;;;;;;5030845;28;20568;-73
2022/07/04 06:47:52;;;;;;;2.55;1.05;;;19.50;99.90;;;;;;5029559;28;20048;-73
2022/07/04 06:50:18;;;;;;;4.95;1.60;;;19.80;99.90;;;;;;5024724;28;20026;-73
2022/07/04 06:52:44;;;;;;;8.48;1.40;;;20.00;99.90;;;;;;5024785;28;20050;-73
2022/07/04 06:55:10;;;;;;;8.70;1.38;;;20.40;99.90;;;;;;5024203;28;20037;-73
2022/07/04 06:57:36;;;;;;;3.47;1.25;;;20.60;99.90;;;;;;5023604;28;20539;-74
2022/07/04 07:00:04;;;;;;;10.55;1.90;;;20.80;99.90;;;;;;5025621;28;20048;-72
2022/07/04 07:02:29;;;;;;;3.58;1.10;;;21.00;99.90;;;;;;5025840;28;20039;-73
2022/07/04 07:04:56;;;;;;;3.72;0.88;;;21.20;99.90;;;;;;5027110;28;20112;-74
2022/07/04 07:07:24;;;;;;;7.95;1.10;;;21.50;99.90;;;;;;5026387;28;20044;-74
2022/07/04 07:09:50;;;;;;;6.03;1.15;;;21.80;99.90;;;;;;5025351;28;20061;-74
2022/07/04 07:12:16;;;;;;;3.95;1.02;;;22.20;99.90;;;;;;5028096;28;20041;-74
2022/07/04 07:14:41;;;;;;;4.00;0.98;;;22.40;99.90;;;;;;5025421;28;20048;-74
2022/07/04 07:17:07;;;;;;;4.28;0.88;;;22.20;99.90;;;;;;5027148;28;20083;-74
2022/07/04 07:19:33;;;;;;;4.45;1.08;;;22.60;99.90;;;;;;5027338;28;20029;-74
2022/07/04 07:21:59;;;;;;;4.15;1.00;;;22.90;99.90;;;;;;5026672;28;20033;-74
2022/07/04 07:24:25;;;;;;;2.00;0.50;;;23.00;99.90;;;;;;5026399;28;20122;-72
2022/07/04 07:26:52;;;;;;;3.22;0.90;;;23.10;99.90;;;;;;5032049;28;20048;-76
2022/07/04 07:29:18;;;;;;;3.95;0.90;;;23.30;99.90;;;;;;5028254;28;20084;-74
2022/07/04 07:31:43;;;;;;;3.63;1.45;;;24.00;99.90;;;;;;5027240;28;20038;-73
2022/07/04 07:34:09;;;;;;;3.45;0.57;;;25.10;99.90;;;;;;5027377;28;20195;-75
2022/07/04 07:36:34;;;;;;;3.90;0.80;;;26.30;99.90;;;;;;5025016;28;20046;-74
2022/07/04 07:39:00;;;;;;;2.40;0.82;;;27.40;99.90;;;;;;5026847;28;20033;-73
2022/07/04 07:41:26;;;;;;;5.40;1.27;;;28.20;99.90;;;;;;5025801;28;20393;-75
2022/07/04 07:43:51;;;;;;;4.22;1.67;;;28.80;99.20;;;;;;5028611;28;20030;-75
2022/07/04 07:46:17;;;;;;;6.13;1.33;;;29.40;97.90;;;;;;5028940;28;20456;-75
2022/07/04 07:48:42;;;;;;;3.35;1.10;;;30.20;95.50;;;;;;5028916;28;20071;-73
2022/07/04 07:51:10;;;;;;;5.10;1.27;;;30.70;94.60;;;;;;5025158;28;20025;-73
2022/07/04 07:53:36;;;;;;;5.05;1.27;;;31.00;92.70;;;;;;5027275;28;20045;-74
2022/07/04 07:56:01;;;;;;;6.82;1.38;;;31.20;91.80;;;;;;5028492;28;20075;-73
2022/07/04 07:58:28;;;;;;;10.13;1.10;;;30.90;91.50;;;;;;5024803;28;20105;-74
2022/07/04 08:00:54;;;;;;;4.07;0.80;;;29.90;91.30;;;;;;5028391;28;20064;-70
2022/07/04 08:06:04;;;;;;;2.47;0.93;;;29.40;91.50;;;;;;5024119;28;20045;-73
2022/07/04 08:08:30;;;;;;;1.98;0.77;;;28.90;89.00;;;;;;5025205;28;20030;-73
2022/07/04 08:10:55;;;;;;;2.53;0.88;;;29.00;89.70;;;;;;5024749;28;20022;-72
2022/07/04 08:13:21;;;;;;;1.73;0.32;;;29.10;84.10;;;;;;5026344;28;20079;-72
2022/07/04 08:15:47;;;;;;;2.83;0.90;;;29.50;86.30;;;;;;5027212;28;20041;-73
2022/07/04 08:18:13;;;;;;;1.67;0.50;;;29.50;84.40;;;;;;5026874;28;20405;-74
2022/07/04 08:20:38;;;;;;;1.88;0.60;;;29.30;84.00;;;;;;5026820;28;20123;-74
2022/07/04 08:23:04;;;;;;;1.63;0.70;;;28.90;85.40;;;;;;5027319;28;20041;-74
2022/07/04 08:25:29;;;;;;;1.88;0.50;;;28.50;86.40;;;;;;5029993;28;20029;-74
2022/07/04 08:27:55;;;;;;;0.88;0.40;;;28.10;86.70;;;;;;5026891;28;20033;-74
2022/07/04 08:30:21;;;;;;;2.95;0.50;;;27.60;88.60;;;;;;5030368;28;20047;-74
2022/07/04 08:32:46;;;;;;;1.10;0.38;;;27.20;87.90;;;;;;5034062;28;20144;-72
2022/07/04 08:35:12;;;;;;;1.45;0.40;;;26.90;88.40;;;;;;5036296;28;20570;-72
2022/07/04 08:37:40;;;;;;;1.98;0.50;;;26.50;89.90;;;;;;5033757;28;20096;-72
2022/07/04 08:40:07;;;;;;;2.30;0.40;;;25.80;92.30;;;;;;5029269;28;20033;-74
2022/07/04 08:42:38;;;;;;;0.80;0.22;;;25.50;91.20;;;;;;5027697;28;20037;-73
2022/07/04 08:45:05;;;;;;;1.40;0.57;;;25.40;91.60;;;;;;5026607;28;20033;-74
2022/07/04 08:47:33;;;;;;;1.00;0.20;;;25.10;92.20;;;;;;5021461;28;20501;-74
2022/07/04 08:50:26;;;;;;;1.08;0.43;;;24.80;92.00;;;;;;5027349;28;20041;-74
2022/07/04 08:53:05;;;;;;;3.38;0.15;;;25.00;92.20;;;;;;5029835;28;20041;-74
2022/07/04 08:58:25;;;;;;;1.92;0.47;;;25.10;91.50;;;;;;5030147;28;20032;-74
2022/07/04 09:00:58;;;;;;;1.20;0.50;;;24.80;92.50;;;;;;5029319;28;20436;-74
2022/07/04 09:03:26;;;;;;;1.52;0.63;;;24.80;93.30;;;;;;5028902;28;20038;-74
2022/07/04 09:05:52;;;;;;;0.70;0.30;;;24.80;93.30;;;;;;5029998;28;20482;-74
2022/07/04 09:08:18;;;;;;;2.20;0.32;;;24.70;92.30;;;;;;5030287;28;20042;-72
2022/07/04 09:10:44;;;;;;;1.65;0.32;;;24.80;91.90;;;;;;5028997;28;20071;-74
2022/07/04 09:13:11;;;;;;;1.38;0.63;;;25.10;91.70;;;;;;5029915;28;20489;-74
2022/07/04 09:15:37;;;;;;;1.83;0.38;;;24.90;91.10;;;;;;5029206;28;20553;-74
2022/07/04 09:18:03;;;;;;;2.15;0.47;;;24.60;92.00;;;;;;5030748;28;20032;-73
2022/07/04 09:20:31;;;;;;;1.25;0.30;;;24.50;91.00;;;;;;5027981;28;20037;-73
2022/07/04 09:22:58;;;;;;;1.67;0.63;;;24.40;91.80;;;;;;5028428;28;20052;-74
2022/07/04 09:25:25;;;;;;;0.75;0.22;;;24.30;92.00;;;;;;5027728;28;20121;-74
2022/07/04 09:27:53;;;;;;;1.95;0.52;;;24.50;91.10;;;;;;5032563;28;20120;-72
2022/07/04 09:30:23;;;;;;;1.05;0.10;;;24.50;91.60;;;;;;5029124;28;20379;-72
2022/07/04 09:32:59;;;;;;;5.15;0.30;;;24.30;91.60;;;;;;5028588;28;20041;-71
2022/07/04 09:35:26;;;;;;;3.38;0.68;;;23.90;91.50;;;;;;5025924;28;20109;-72
2022/07/04 09:37:55;;;;;;;0.45;0.20;;;23.40;91.60;;;;;;5029486;28;20501;-73
2022/07/04 09:40:23;;;;;;;6.63;0.68;;;23.10;92.60;;;;;;5030618;28;20450;-72
2022/07/04 09:42:49;;;;;;;1.60;0.65;;;22.90;93.50;;;;;;5029847;28;20042;-72
2022/07/04 09:45:14;;;;;;;0.95;0.50;;;22.80;92.30;;;;;;5028864;28;20033;-73
2022/07/04 09:47:41;;;;;;;3.63;0.30;;;22.70;93.00;;;;;;5032643;28;20061;-73
2022/07/04 09:50:20;;;;;;;1.27;0.30;;;22.40;93.80;;;;;;5030353;28;20678;-71
2022/07/04 09:52:53;;;;;;;8.63;0.60;;;22.40;94.00;;;;;;5029406;28;21617;-73
2022/07/04 09:55:26;;;;;;;1.40;0.40;;;22.40;94.50;;;;;;5030225;28;20096;-72
2022/07/04 09:57:53;;;;;;;7.35;0.50;;;22.50;94.00;;;;;;5030289;28;20033;-73
2022/07/04 10:00:27;;;;;;;3.70;0.25;;;22.50;94.00;;;;;;5024230;28;20049;-72
2022/07/04 10:02:54;;;;;;;1.38;0.30;;;22.50;93.20;;;;;;5025196;28;20061;-73
2022/07/04 10:05:28;;;;;;;3.58;0.70;;;22.50;92.70;;;;;;5030506;28;20033;-71
2022/07/04 10:07:55;;;;;;;1.95;0.32;;;22.70;93.90;;;;;;5026613;28;20035;-73
2022/07/04 10:10:23;;;;;;;1.45;0.40;;;23.00;94.10;;;;;;5026764;28;20033;-71
2022/07/04 10:12:50;;;;;;;1.90;0.65;;;23.40;93.30;;;;;;5027029;28;20033;-72
2022/07/04 10:15:16;;;;;;;4.68;0.30;;;23.50;92.00;;;;;;5029983;28;20494;-72
2022/07/04 10:17:42;;;;;;;2.30;0.30;;;23.50;93.00;;;;;;5028320;28;20409;-73
2022/07/04 10:20:10;;;;;;;8.20;0.60;;;23.50;93.00;;;;;;5029167;28;20033;-72
2022/07/04 10:22:37;;;;;;;0.90;0.17;;;23.30;92.60;;;;;;5028692;28;20700;-73
2022/07/04 10:25:03;;;;;;;1.65;0.30;;;23.40;93.00;;;;;;5031389;28;20044;-73
2022/07/04 10:27:30;;;;;;;1.00;0.10;;;23.40;92.50;;;;;;5027849;28;20034;-71
2022/07/04 10:29:57;;;;;;;0.85;0.10;;;23.50;91.80;;;;;;5030290;28;20037;-73
2022/07/04 10:32:22;;;;;;;0.85;0.13;;;23.50;92.50;;;;;;5030664;28;20067;-72
2022/07/04 10:34:48;;;;;;;2.60;0.57;;;23.60;90.80;;;;;;5028771;28;20722;-73
2022/07/04 10:37:14;;;;;;;4.07;0.32;;;23.60;90.80;;;;;;5029546;28;20037;-73
2022/07/04 10:39:40;;;;;;;3.60;0.20;;;23.60;91.30;;;;;;5029406;28;20481;-73
2022/07/04 10:42:07;;;;;;;8.38;0.50;;;23.70;91.00;;;;;;5028681;28;20490;-73
2022/07/04 10:44:40;;;;;;;3.40;0.20;;;23.90;90.90;;;;;;5027584;28;20037;-73
2022/07/04 10:47:20;;;;;;;0.52;0.30;;;24.20;90.30;;;;;;5030320;28;20030;-72
2022/07/04 10:49:48;;;;;;;0.85;0.25;;;24.30;90.10;;;;;;5027190;28;20034;-73
2022/07/04 10:52:14;;;;;;;0.82;0.40;;;24.10;88.70;;;;;;5027437;28;20057;-73
2022/07/04 10:54:41;;;;;;;1.70;0.20;;;24.00;89.70;;;;;;5028239;28;20076;-73
2022/07/04 10:57:21;;;;;;;4.85;0.43;;;24.10;89.40;;;;;;5029136;28;20025;-73
2022/07/04 10:59:56;;;;;;;0.68;0.40;;;24.10;89.20;;;;;;5027441;28;20045;-73
2022/07/04 11:02:24;;;;;;;0.85;0.32;;;23.80;89.00;;;;;;5024845;28;20528;-73
2022/07/04 11:05:05;;;;;;;3.95;0.70;;;23.70;89.10;;;;;;5028863;28;20053;-74
2022/07/04 11:07:30;;;;;;;1.75;0.22;;;23.60;90.40;;;;;;5025021;28;20033;-73
2022/07/04 11:10:12;;;;;;;2.58;0.43;;;23.90;90.60;;;;;;5028543;28;20042;-72
2022/07/04 11:12:55;;;;;;;0.98;0.10;;;24.10;89.40;;;;;;5024680;28;20081;-72
2022/07/04 11:15:27;;;;;;;7.65;0.35;;;24.20;89.50;;;;;;5028357;28;20073;-71
2022/07/04 11:17:55;;;;;;;2.03;0.45;;;23.90;88.10;;;;;;5025354;28;20120;-74
2022/07/04 11:20:22;;;;;;;2.17;0.30;;;23.90;90.00;;;;;;5029109;28;20146;-74
2022/07/04 11:22:48;;;;;;;1.48;0.20;;;23.80;88.90;;;;;;5025586;28;20102;-74
2022/07/04 11:25:15;;;;;;;1.70;0.10;;;23.70;90.00;;;;;;5026421;28;20152;-74
2022/07/04 11:27:41;;;;;;;6.13;0.90;;;23.80;91.70;;;;;;5028389;28;20036;-72
2022/07/04 11:30:08;;;;;;;2.15;0.40;;;23.90;90.30;;;;;;5030733;28;20490;-72
2022/07/04 11:32:36;;;;;;;2.38;0.30;;;24.00;90.10;;;;;;5030592;28;20226;-72
2022/07/04 11:35:07;;;;;;;1.85;0.57;;;24.10;89.80;;;;;;5027667;28;20128;-73
2022/07/04 11:37:33;;;;;;;1.30;0.30;;;24.20;90.30;;;;;;5029819;28;20125;-73
2022/07/04 11:45:50;;;;;;;1.85;0.30;;;24.30;88.80;;;;;;5023844;28;20036;-71
2022/07/04 11:48:26;;;;;;;3.45;0.50;;;24.20;90.20;;;;;;5036432;28;20039;-74
2022/07/04 11:50:53;;;;;;;1.98;0.20;;;24.50;88.90;;;;;;5024428;28;20549;-72
2022/07/04 11:53:19;;;;;;;1.02;0.10;;;24.50;89.40;;;;;;5026568;28;20041;-74
2022/07/04 11:55:55;;;;;;;0.77;0.38;;;24.60;88.70;;;;;;5027736;28;20075;-73
2022/07/04 11:58:21;;;;;;;1.77;0.40;;;24.60;89.10;;;;;;5023514;28;20041;-74
2022/07/04 12:00:47;;;;;;;0.93;0.20;;;24.40;89.50;;;;;;5024689;28;21610;-74
2022/07/04 12:03:13;;;;;;;2.00;0.30;;;24.30;88.30;;;;;;5025376;28;20032;-74
2022/07/04 12:05:38;;;;;;;0.60;0.22;;;24.20;88.10;;;;;;5025563;28;20048;-73
2022/07/04 12:08:07;;;;;;;0.93;0.22;;;24.00;89.00;;;;;;5024984;28;20029;-74
2022/07/04 12:10:33;;;;;;;0.90;0.32;;;24.10;88.80;;;;;;5023917;28;20041;-72
2022/07/04 12:13:03;;;;;;;3.78;0.93;;;24.10;89.70;;;;;;5028585;28;20114;-74
2022/07/04 12:15:38;;;;;;;1.05;0.10;;;24.10;88.20;;;;;;5025239;28;20037;-74
2022/07/04 12:18:14;;;;;;;2.78;0.73;;;24.20;87.20;;;;;;5026832;28;20068;-74
2022/07/04 12:20:40;;;;;;;4.40;0.32;;;24.20;90.50;;;;;;5026750;28;20029;-74
2022/07/04 12:23:05;;;;;;;4.97;0.20;;;24.20;87.30;;;;;;5027092;28;20059;-73
2022/07/04 12:25:34;;;;;;;1.65;0.43;;;24.00;87.50;;;;;;5028950;28;20103;-73
2022/07/04 12:28:03;;;;;;;0.82;0.20;;;24.00;87.30;;;;;;5029436;28;20249;-73
2022/07/04 12:30:32;;;;;;;0.40;0.15;;;24.00;89.40;;;;;;5030045;28;20044;-70
2022/07/04 12:33:02;;;;;;;2.75;0.28;;;24.10;89.10;;;;;;5030034;28;20144;-72
2022/07/04 12:35:36;;;;;;;3.88;0.35;;;24.00;85.70;;;;;;5030284;28;20038;-72
2022/07/04 12:38:12;;;;;;;1.65;0.35;;;24.10;88.70;;;;;;5034885;28;20083;-73
2022/07/04 12:40:50;;;;;;;0.93;0.20;;;24.30;90.20;;;;;;5034412;28;20145;-73
2022/07/04 12:43:17;;;;;;;1.63;0.47;;;24.30;90.40;;;;;;5029811;28;20056;-74
2022/07/04 12:45:54;;;;;;;0.50;0.10;;;24.40;90.20;;;;;;5026889;28;20056;-72
2022/07/04 12:48:24;;;;;;;2.30;0.60;;;24.40;88.30;;;;;;5043465;28;20029;-73
2022/07/04 12:50:49;;;;;;;2.90;0.20;;;24.40;89.50;;;;;;5032607;28;20060;-73
2022/07/04 12:53:16;;;;;;;1.13;0.35;;;24.40;89.10;;;;;;5031944;28;20061;-75
2022/07/04 12:55:43;;;;;;;1.45;0.30;;;24.50;89.00;;;;;;5027416;28;20194;-73
2022/07/04 12:58:09;;;;;;;2.53;0.40;;;24.50;86.90;;;;;;5028208;28;20029;-72
2022/07/04 13:00:36;;;;;;;0.90;0.22;;;24.60;87.10;;;;;;5028662;28;20071;-73
2022/07/04 13:03:02;;;;;;;0.52;0.30;;;24.50;87.20;;;;;;5026383;28;20033;-73
2022/07/04 13:05:28;;;;;;;1.27;0.20;;;24.40;88.20;;;;;;5029145;28;20033;-73